Campanya meteocatpedra

Dades EMA Seròs

?
?
Resum diari 21:00 TU
Dades diàries de l'estació meteorològica
Temperatura mitjana 26.3 °C
Temperatura màxima 34.3 °C 14:40 TU
Temperatura mínima 18.0 °C 4:36 TU
Humitat relativa mitjana 67%
Precipitació acumulada 0.0 mm
Ratxa màxima del vent (2 m) 15.8 km/h - 179º 19:05 TU
Irradiació solar global 22.0 MJ/m2

El tram horari està expressat en Temps Universal (TU). Cal sumar una hora en horari d'hivern i dues en horari d'estiu per passar a l'hora oficial.

Seròs

Metadades estació meteorol´gica
Municipi Seròs
Comarca Segrià
Altitud 89 m
Data alta 15.12.2011
Estat actual Operativa
Dades de període
Període
TU
TM
°C
TX
°C
TN
°C
HRM
%
PPT
mm
VVM (2 m)
km/h
DVM (2 m)
graus
VVX (2 m)
km/h
RS
W/m2
00:00 - 00:30 19.3 19.6 19.0 89 0.0 1.8 42 4.7 0
00:30 - 01:00 19.3 19.3 19.2 89 0.0 3.6 29 7.2 0
01:00 - 01:30 19.5 19.7 19.3 87 0.0 4.0 28 7.6 0
01:30 - 02:00 19.3 19.4 19.0 89 0.0 3.2 28 6.5 0
02:00 - 02:30 18.9 19.0 18.8 92 0.0 1.8 16 3.6 0
02:30 - 03:00 18.8 18.9 18.7 93 0.0 0.7 30 2.5 0
03:00 - 03:30 18.7 18.9 18.6 93 0.0 0.4 119 1.8 0
03:30 - 04:00 18.8 18.9 18.6 93 0.0 0.4 44 2.5 0
04:00 - 04:30 18.5 18.6 18.2 94 0.0 0.4 23 3.2 0
04:30 - 05:00 18.2 18.4 18.0 95 0.0 0.7 22 3.2 0
05:00 - 05:30 18.4 18.5 18.2 95 0.0 0.7 331 2.2 6
05:30 - 06:00 18.9 19.5 18.4 95 0.0 0.0 227 1.1 25
06:00 - 06:30 20.0 20.4 19.6 92 0.0 0.7 245 3.6 44
06:30 - 07:00 20.9 21.4 20.4 87 0.0 0.4 192 2.2 76
07:00 - 07:30 22.1 22.7 21.5 81 0.0 0.4 240 1.8 136
07:30 - 08:00 23.4 23.7 22.7 75 0.0 1.1 334 5.0 233
08:00 - 08:30 24.6 25.4 23.7 73 0.0 1.4 216 5.8 356
08:30 - 09:00 25.9 26.5 25.4 70 0.0 3.6 251 9.0 445
09:00 - 09:30 26.7 27.1 26.5 67 0.0 3.6 255 8.6 497
09:30 - 10:00 27.2 27.9 26.6 65 0.0 4.0 256 9.0 558
10:00 - 10:30 28.3 28.6 27.9 61 0.0 4.3 256 11.2 694
10:30 - 11:00 29.0 29.5 28.7 59 0.0 5.4 272 12.2 716
11:00 - 11:30 29.6 29.9 28.9 57 0.0 5.0 266 13.3 788
11:30 - 12:00 30.7 31.1 29.9 54 0.0 5.0 262 11.2 875
12:00 - 12:30 31.3 31.7 30.7 50 0.0 4.0 260 10.8 871
12:30 - 13:00 32.2 32.9 31.4 46 0.0 4.0 249 11.2 855
13:00 - 13:30 32.7 33.2 31.7 44 0.0 3.6 232 9.0 831
13:30 - 14:00 33.3 33.7 32.9 41 0.0 2.5 166 9.4 791
14:00 - 14:30 33.6 34.2 33.1 42 0.0 2.5 11 11.2 730
14:30 - 15:00 33.8 34.3 33.3 41 0.0 2.9 37 9.0 652
15:00 - 15:30 33.6 33.8 33.3 41 0.0 3.2 3 9.7 486
15:30 - 16:00 33.3 33.9 32.8 43 0.0 4.0 345 12.6 446
16:00 - 16:30 33.9 34.3 33.6 41 0.0 3.2 343 7.6 423
16:30 - 17:00 33.9 34.2 33.7 41 0.0 3.2 349 7.9 323
17:00 - 17:30 33.0 33.6 32.6 45 0.0 3.2 14 7.6 224
17:30 - 18:00 32.2 32.5 31.8 49 0.0 1.4 62 5.4 131
18:00 - 18:30 30.8 31.8 30.0 57 0.0 2.2 141 7.2 56
18:30 - 19:00 30.1 30.6 29.7 53 0.0 5.8 154 15.1 11
19:00 - 19:30 29.2 29.6 28.8 55 0.0 5.8 139 15.8 0
19:30 - 20:00 28.4 28.8 28.1 57 0.0 5.0 138 11.5 0
20:00 - 20:30 27.3 28.0 26.1 61 0.0 2.9 218 13.3 0
20:30 - 21:00 26.9 27.1 26.1 62 0.0 4.7 165 14.0 0
21:00 - 21:30 26.7 26.9 26.3 63 0.0 5.0 189 14.0 0

Les dades en taronja només han passat un control de qualitat automàtic. Resta pendent la seva validació definitiva.